createdAt,value
2023-02-26T00:00:21.331Z,94596.88
2023-02-26T00:02:49.368Z,94592.75
2023-02-26T00:05:17.633Z,94591.13
2023-02-26T00:07:45.512Z,94597.81
2023-02-26T00:10:16.200Z,94593.88
2023-02-26T00:12:44.903Z,94600.03
2023-02-26T00:15:15.075Z,94600.03
2023-02-26T00:17:50.056Z,94612.66
2023-02-26T00:20:19.110Z,94602.91
2023-02-26T00:22:50.435Z,94613.00
2023-02-26T00:25:19.674Z,94614.75
2023-02-26T00:27:47.876Z,94625.41
2023-02-26T00:30:16.192Z,94629.00
2023-02-26T00:32:44.728Z,94613.56
2023-02-26T00:35:15.876Z,94603.41
2023-02-26T00:37:58.951Z,94615.00
2023-02-26T00:40:35.879Z,94618.00
2023-02-26T00:43:04.650Z,94619.84
2023-02-26T00:45:35.582Z,94625.41
2023-02-26T00:48:32.131Z,94629.38
2023-02-26T00:51:07.157Z,94629.78
2023-02-26T00:53:42.049Z,94636.88
2023-02-26T00:56:11.118Z,94624.88
2023-02-26T00:58:38.896Z,94625.56
2023-02-26T01:01:06.748Z,94626.25
2023-02-26T01:03:35.094Z,94616.31
2023-02-26T01:06:03.226Z,94632.41
2023-02-26T01:08:38.604Z,94631.59
2023-02-26T01:11:06.435Z,94624.06
2023-02-26T01:13:36.081Z,94620.94
2023-02-26T01:16:10.342Z,94616.19
2023-02-26T01:18:43.910Z,94627.41
2023-02-26T01:21:17.804Z,94630.31
2023-02-26T01:23:51.322Z,94624.59
2023-02-26T01:26:24.432Z,94632.75
2023-02-26T01:28:54.433Z,94631.59
2023-02-26T01:31:35.820Z,94629.50
2023-02-26T01:34:10.964Z,94633.69
2023-02-26T01:36:44.940Z,94643.78
2023-02-26T01:39:19.407Z,94632.78
2023-02-26T01:41:50.627Z,94641.00
2023-02-26T01:44:27.240Z,94637.31
2023-02-26T01:47:07.286Z,94642.63
2023-02-26T01:49:35.798Z,94636.03
2023-02-26T01:52:05.006Z,94638.94
2023-02-26T01:54:34.926Z,94644.94
2023-02-26T01:57:06.921Z,94641.81
2023-02-26T01:59:39.543Z,94639.16
2023-02-26T02:02:09.880Z,94643.81
2023-02-26T02:04:38.764Z,94642.44
2023-02-26T02:07:07.589Z,94654.81
2023-02-26T02:09:38.863Z,94648.09
2023-02-26T02:12:22.471Z,94656.91
2023-02-26T02:15:03.561Z,94653.31
2023-02-26T02:17:42.434Z,94658.75
2023-02-26T02:20:45.952Z,94665.47
2023-02-26T02:23:20.184Z,94668.94
2023-02-26T02:26:34.032Z,94666.97
2023-02-26T02:29:23.743Z,94668.69
2023-02-26T02:31:56.929Z,94664.41
2023-02-26T02:34:30.971Z,94672.63
2023-02-26T02:37:02.504Z,94665.47
2023-02-26T02:39:33.493Z,94670.66
2023-02-26T02:42:07.190Z,94681.31
2023-02-26T02:44:39.854Z,94676.72
2023-02-26T02:47:12.133Z,94673.00
2023-02-26T02:49:46.419Z,94679.03
2023-02-26T02:52:19.513Z,94674.50
2023-02-26T02:54:51.793Z,94685.28
2023-02-26T02:57:24.242Z,94679.59
2023-02-26T02:59:58.074Z,94689.56
2023-02-26T03:02:34.083Z,94685.34
2023-02-26T03:05:01.855Z,94689.78
2023-02-26T03:07:32.047Z,94685.50
2023-02-26T03:09:59.940Z,94693.94
2023-02-26T03:12:28.527Z,94690.25
2023-02-26T03:14:56.347Z,94700.06
2023-02-26T03:17:32.974Z,94696.84
2023-02-26T03:20:10.133Z,94698.44
2023-02-26T03:22:46.637Z,94704.59
2023-02-26T03:25:19.202Z,94698.91
2023-02-26T03:27:54.180Z,94710.72
2023-02-26T03:30:30.263Z,94711.50
2023-02-26T03:33:04.922Z,94710.25
2023-02-26T03:35:38.884Z,94715.78
2023-02-26T03:38:12.656Z,94720.44
2023-02-26T03:40:44.473Z,94720.53
2023-02-26T03:43:18.071Z,94725.72
2023-02-26T03:45:50.365Z,94725.03
2023-02-26T03:48:24.176Z,94723.41
2023-02-26T03:50:59.127Z,94729.19
2023-02-26T03:53:31.606Z,94732.19
2023-02-26T03:56:05.144Z,94730.56
2023-02-26T03:58:33.160Z,94730.94
2023-02-26T04:01:04.734Z,94736.78
2023-02-26T04:03:39.614Z,94748.25
2023-02-26T04:06:08.256Z,94741.41
2023-02-26T04:08:36.564Z,94745.34
2023-02-26T04:11:09.066Z,94741.66
2023-02-26T04:13:36.805Z,94740.59
2023-02-26T04:16:05.673Z,94738.66
2023-02-26T04:18:34.978Z,94736.69
2023-02-26T04:21:02.718Z,94744.88
2023-02-26T04:23:30.503Z,94743.97
2023-02-26T04:25:58.225Z,94742.81
2023-02-26T04:28:34.023Z,94744.66
2023-02-26T04:31:02.091Z,94752.94
2023-02-26T04:33:29.870Z,94765.25
2023-02-26T04:35:58.983Z,94763.06
2023-02-26T04:38:26.744Z,94765.00
2023-02-26T04:40:54.519Z,94767.88
2023-02-26T04:43:25.030Z,94765.59
2023-02-26T04:45:52.815Z,94774.81
2023-02-26T04:48:20.858Z,94768.69
2023-02-26T04:50:51.766Z,94776.53
2023-02-26T04:53:20.880Z,94776.97
2023-02-26T04:55:52.228Z,94778.22
2023-02-26T04:58:20.553Z,94777.41
2023-02-26T05:00:52.242Z,94782.88
2023-02-26T05:03:20.018Z,94782.28
2023-02-26T05:05:50.550Z,94778.50
2023-02-26T05:08:18.293Z,94781.53
2023-02-26T05:10:47.862Z,94788.84
2023-02-26T05:13:15.663Z,94790.13
2023-02-26T05:15:43.551Z,94792.34
2023-02-26T05:18:11.338Z,94796.50
2023-02-26T05:20:39.339Z,94798.13
2023-02-26T05:23:07.387Z,94795.53
2023-02-26T05:25:35.100Z,94807.16
2023-02-26T05:28:07.019Z,94812.31
2023-02-26T05:30:34.764Z,94814.16
2023-02-26T05:33:02.492Z,94815.28
2023-02-26T05:35:30.264Z,94812.69
2023-02-26T05:38:00.847Z,94820.72
2023-02-26T05:40:31.360Z,94821.59
2023-02-26T05:43:00.018Z,94810.66
2023-02-26T05:45:29.085Z,94829.25
2023-02-26T05:47:57.393Z,94820.09
2023-02-26T05:50:25.064Z,94819.69
2023-02-26T05:52:52.800Z,94818.72
2023-02-26T05:55:21.038Z,94805.53
2023-02-26T05:57:50.419Z,94815.53
2023-02-26T06:00:21.609Z,94820.03
2023-02-26T06:02:50.736Z,94820.69
2023-02-26T06:05:18.809Z,94826.81
2023-02-26T06:07:49.548Z,94834.31
2023-02-26T06:10:20.051Z,94843.09
2023-02-26T06:12:51.126Z,94856.97
2023-02-26T06:15:22.061Z,94874.41
2023-02-26T06:17:54.236Z,94877.84
2023-02-26T06:20:22.129Z,94888.78
2023-02-26T06:22:49.823Z,94890.16
2023-02-26T06:25:20.128Z,94905.09
2023-02-26T06:27:47.827Z,94899.78
2023-02-26T06:30:15.731Z,94899.22
2023-02-26T06:32:44.504Z,94895.25
2023-02-26T06:35:15.436Z,94897.03
2023-02-26T06:37:43.150Z,94899.75
2023-02-26T06:40:11.996Z,94899.84
2023-02-26T06:42:39.701Z,94894.44
2023-02-26T06:45:08.259Z,94911.63
2023-02-26T06:47:35.983Z,94900.06
2023-02-26T06:50:04.127Z,94905.81
2023-02-26T06:52:33.591Z,94906.75
2023-02-26T06:55:01.323Z,94913.25
2023-02-26T06:57:29.062Z,94907.91
2023-02-26T06:59:56.786Z,94916.38
2023-02-26T07:02:25.159Z,94927.09
2023-02-26T07:04:53.271Z,94921.19
2023-02-26T07:07:22.880Z,94933.81
2023-02-26T07:09:52.139Z,94937.41
2023-02-26T07:12:19.923Z,94942.34
2023-02-26T07:14:47.622Z,94953.44
2023-02-26T07:17:20.494Z,94944.44
2023-02-26T07:19:49.150Z,94948.81
2023-02-26T07:22:17.762Z,94950.22
2023-02-26T07:24:48.229Z,94947.00
2023-02-26T07:27:17.381Z,94953.88
2023-02-26T07:29:45.140Z,94958.22
2023-02-26T07:32:13.009Z,94956.59
2023-02-26T07:34:40.773Z,94946.84
2023-02-26T07:37:08.499Z,94951.88
2023-02-26T07:39:36.214Z,94955.22
2023-02-26T07:42:03.987Z,94961.09
2023-02-26T07:44:33.094Z,94954.06
2023-02-26T07:47:01.004Z,94957.34
2023-02-26T07:49:28.807Z,94962.34
2023-02-26T07:51:59.317Z,94972.94
2023-02-26T07:54:27.249Z,94967.84
2023-02-26T07:56:55.329Z,94969.81
2023-02-26T07:59:23.076Z,94976.81
2023-02-26T08:01:53.161Z,94988.19
2023-02-26T08:04:20.956Z,94983.81
2023-02-26T08:06:48.698Z,94985.34
2023-02-26T08:09:16.733Z,94981.28
2023-02-26T08:11:44.470Z,94975.72
2023-02-26T08:14:12.889Z,94975.03
2023-02-26T08:16:40.854Z,94979.91
2023-02-26T08:19:10.215Z,94988.25
2023-02-26T08:21:38.437Z,94992.72
2023-02-26T08:24:06.728Z,94995.63
2023-02-26T08:26:37.119Z,94999.00
2023-02-26T08:29:06.291Z,94996.03
2023-02-26T08:31:35.534Z,94995.56
2023-02-26T08:34:04.105Z,95002.88
2023-02-26T08:36:33.891Z,95004.41
2023-02-26T08:39:01.644Z,95008.41
2023-02-26T08:41:32.340Z,95019.34
2023-02-26T08:44:00.798Z,95018.53
2023-02-26T08:46:28.994Z,95010.19
2023-02-26T08:48:57.057Z,95015.78
2023-02-26T08:51:25.239Z,95015.09
2023-02-26T08:53:54.462Z,95022.16
2023-02-26T08:56:22.886Z,95018.22
2023-02-26T08:58:50.692Z,95024.81
2023-02-26T09:01:18.388Z,95025.25
2023-02-26T09:03:46.090Z,95037.13
2023-02-26T09:06:13.803Z,95038.25
2023-02-26T09:08:41.523Z,95048.22
2023-02-26T09:11:11.233Z,95048.69
2023-02-26T09:13:39.337Z,95054.38
2023-02-26T09:16:08.101Z,95055.19
2023-02-26T09:18:35.871Z,95053.25
2023-02-26T09:21:06.641Z,95059.97
2023-02-26T09:23:34.366Z,95065.63
2023-02-26T09:26:02.130Z,95067.47
2023-02-26T09:28:31.249Z,95072.66
2023-02-26T09:30:59.027Z,95074.44
2023-02-26T09:33:26.869Z,95070.94
2023-02-26T09:35:55.047Z,95082.06
2023-02-26T09:38:22.748Z,95080.81
2023-02-26T09:40:55.618Z,95075.75
2023-02-26T09:43:43.114Z,95077.03
2023-02-26T09:46:20.126Z,95086.16
2023-02-26T09:48:51.079Z,95075.31
2023-02-26T09:51:22.111Z,95074.75
2023-02-26T09:53:52.076Z,95075.88
2023-02-26T09:56:24.872Z,95081.72
2023-02-26T09:58:55.582Z,95082.75
2023-02-26T10:01:30.454Z,95085.78
2023-02-26T10:04:11.324Z,95098.81
2023-02-26T10:06:48.532Z,95099.16
2023-02-26T10:09:34.446Z,95086.94
2023-02-26T10:12:03.914Z,95090.16
2023-02-26T10:14:39.391Z,95092.34
2023-02-26T10:17:09.392Z,95080.28
2023-02-26T10:19:42.029Z,95089.69
2023-02-26T10:22:18.519Z,95091.19
2023-02-26T10:24:52.344Z,95085.34
2023-02-26T10:27:26.672Z,95088.22
2023-02-26T10:30:01.248Z,95088.91
2023-02-26T10:32:36.789Z,95094.00
2023-02-26T10:35:09.138Z,95083.81
2023-02-26T10:37:48.487Z,95075.31
2023-02-26T10:40:20.469Z,95069.88
2023-02-26T10:42:51.852Z,95066.03
2023-02-26T10:45:38.179Z,95068.72
2023-02-26T10:48:27.139Z,95061.44
2023-02-26T10:50:58.753Z,95073.84
2023-02-26T10:53:29.618Z,95066.44
2023-02-26T10:56:03.123Z,95064.22
2023-02-26T10:58:32.198Z,95057.78
2023-02-26T11:01:01.386Z,95059.28
2023-02-26T11:03:34.631Z,95048.84
2023-02-26T11:06:03.710Z,95053.84
2023-02-26T11:08:37.746Z,95052.75
2023-02-26T11:11:06.476Z,95046.47
2023-02-26T11:13:37.564Z,95049.47
2023-02-26T11:16:12.543Z,95042.38
2023-02-26T11:18:42.864Z,95047.78
2023-02-26T11:21:17.814Z,95054.28
2023-02-26T11:23:48.298Z,95059.00
2023-02-26T11:26:18.996Z,95077.00
2023-02-26T11:28:49.662Z,95090.84
2023-02-26T11:31:21.451Z,95090.84
2023-02-26T11:33:51.632Z,95085.69
2023-02-26T11:36:24.548Z,95096.13
2023-02-26T11:38:56.332Z,95094.41
2023-02-26T11:41:25.412Z,95083.66
2023-02-26T11:44:02.240Z,95084.78
2023-02-26T11:46:32.427Z,95077.97
2023-02-26T11:49:02.266Z,95091.84
2023-02-26T11:51:31.219Z,95088.25
2023-02-26T11:54:01.550Z,95091.53
2023-02-26T11:56:34.159Z,95108.81
2023-02-26T11:59:08.608Z,95102.84
2023-02-26T12:01:38.638Z,95110.75
2023-02-26T12:04:06.409Z,95109.69
2023-02-26T12:06:34.196Z,95108.00
2023-02-26T12:09:02.314Z,95106.88
2023-02-26T12:11:55.302Z,95090.91
2023-02-26T12:15:02.842Z,95089.63
2023-02-26T12:17:49.335Z,95089.88
2023-02-26T12:20:23.908Z,95100.78
2023-02-26T12:22:57.546Z,95112.81
2023-02-26T12:25:55.252Z,95107.06
2023-02-26T12:28:58.664Z,95111.84
2023-02-26T12:31:50.438Z,95105.03
2023-02-26T12:34:35.355Z,95104.88
2023-02-26T12:37:18.822Z,95105.00
2023-02-26T12:39:58.254Z,95099.41
2023-02-26T12:42:39.570Z,95075.25
2023-02-26T12:45:27.131Z,95078.16
2023-02-26T12:48:18.515Z,95073.00
2023-02-26T12:51:00.674Z,95073.06
2023-02-26T12:54:03.075Z,95071.06
2023-02-26T12:57:00.137Z,95067.88
2023-02-26T12:59:56.906Z,95067.66
2023-02-26T13:03:11.015Z,95063.56
2023-02-26T13:05:55.270Z,95050.09
2023-02-26T13:08:33.277Z,95053.50
2023-02-26T13:11:13.141Z,95053.13
2023-02-26T13:14:01.532Z,95059.94
2023-02-26T13:16:43.463Z,95066.72
2023-02-26T13:19:21.718Z,95059.09
2023-02-26T13:21:52.801Z,95072.31
2023-02-26T13:24:26.135Z,95074.78
2023-02-26T13:26:55.524Z,95077.56
2023-02-26T13:29:26.576Z,95090.44
2023-02-26T13:32:00.423Z,95096.06
2023-02-26T13:34:40.703Z,95087.13
2023-02-26T13:37:25.839Z,95085.72
2023-02-26T13:40:13.768Z,95072.56
2023-02-26T13:42:48.311Z,95074.56
2023-02-26T13:45:39.846Z,95076.84
2023-02-26T13:48:21.021Z,95083.16
2023-02-26T13:50:58.532Z,95086.00
2023-02-26T13:53:47.363Z,95097.56
2023-02-26T13:56:18.732Z,95099.00
2023-02-26T13:58:52.910Z,95108.66
2023-02-26T14:01:27.968Z,95110.22
2023-02-26T14:04:23.252Z,95103.28
2023-02-26T14:06:53.339Z,95113.56
2023-02-26T14:09:51.774Z,95109.69
2023-02-26T14:12:36.253Z,95111.75
2023-02-26T14:15:27.796Z,95108.47
2023-02-26T14:18:03.129Z,95102.13
2023-02-26T14:20:32.637Z,95090.19
2023-02-26T14:23:22.530Z,95099.59
2023-02-26T14:25:53.338Z,95100.13
2023-02-26T14:28:45.523Z,95091.34
2023-02-26T14:31:21.265Z,95091.75
2023-02-26T14:34:00.914Z,95096.16
2023-02-26T14:36:35.599Z,95098.53
2023-02-26T14:39:09.295Z,95105.47
2023-02-26T14:41:41.382Z,95113.50
2023-02-26T14:44:16.968Z,95122.47
2023-02-26T14:46:45.271Z,95106.72
2023-02-26T14:49:28.970Z,95125.72
2023-02-26T14:52:25.962Z,95130.91
2023-02-26T14:55:20.022Z,95147.03
2023-02-26T14:57:58.254Z,95154.03
2023-02-26T15:00:39.223Z,95154.81
2023-02-26T15:03:41.006Z,95171.75
2023-02-26T15:06:26.598Z,95174.84
2023-02-26T15:09:08.581Z,95181.31
2023-02-26T15:11:51.715Z,95180.19
2023-02-26T15:14:39.474Z,95172.78
2023-02-26T15:17:24.191Z,95168.47
2023-02-26T15:20:05.423Z,95165.31
2023-02-26T15:22:46.168Z,95165.16
2023-02-26T15:25:24.843Z,95164.34
2023-02-26T15:27:52.778Z,95167.19
2023-02-26T15:30:20.943Z,95171.81
2023-02-26T15:32:50.104Z,95180.69
2023-02-26T15:35:21.072Z,95177.19
2023-02-26T15:37:50.852Z,95193.25
2023-02-26T15:40:19.950Z,95194.81
2023-02-26T15:42:52.140Z,95198.41
2023-02-26T15:45:25.321Z,95192.81
2023-02-26T15:47:59.902Z,95190.72
2023-02-26T15:50:32.318Z,95193.25
2023-02-26T15:53:03.239Z,95193.63
2023-02-26T15:55:35.851Z,95190.78
2023-02-26T15:58:05.034Z,95186.06
2023-02-26T16:00:34.161Z,95198.50
2023-02-26T16:03:04.553Z,95205.03
2023-02-26T16:05:32.326Z,95202.38
2023-02-26T16:08:03.181Z,95210.25
2023-02-26T16:10:38.196Z,95213.97
2023-02-26T16:13:08.671Z,95218.84
2023-02-26T16:15:39.630Z,95224.16
2023-02-26T16:18:13.496Z,95229.13
2023-02-26T16:20:43.843Z,95232.31
2023-02-26T16:23:15.241Z,95241.72
2023-02-26T16:25:51.277Z,95246.38
2023-02-26T16:28:22.227Z,95251.38
2023-02-26T16:30:55.035Z,95251.81
2023-02-26T16:33:27.691Z,95263.50
2023-02-26T16:35:58.622Z,95274.41
2023-02-26T16:38:28.755Z,95261.19
2023-02-26T16:41:00.638Z,95275.41
2023-02-26T16:43:36.456Z,95286.50
2023-02-26T16:46:06.435Z,95280.03
2023-02-26T16:48:40.551Z,95279.78
2023-02-26T16:51:12.528Z,95285.63
2023-02-26T16:53:45.839Z,95285.84
2023-02-26T16:56:16.893Z,95282.66
2023-02-26T16:58:47.615Z,95279.19
2023-02-26T17:01:18.791Z,95290.06
2023-02-26T17:03:50.951Z,95288.53
2023-02-26T17:06:21.852Z,95290.38
2023-02-26T17:08:52.758Z,95298.50
2023-02-26T17:11:25.127Z,95304.50
2023-02-26T17:14:10.179Z,95304.63
2023-02-26T17:16:38.197Z,95300.81
2023-02-26T17:19:09.459Z,95301.63
2023-02-26T17:21:42.017Z,95320.28
2023-02-26T17:24:15.318Z,95315.81
2023-02-26T17:26:43.268Z,95322.25
2023-02-26T17:29:19.210Z,95320.19
2023-02-26T17:31:47.488Z,95331.00
2023-02-26T17:34:17.228Z,95337.53
2023-02-26T17:36:44.988Z,95337.53
2023-02-26T17:39:14.176Z,95356.63
2023-02-26T17:41:44.802Z,95355.22
2023-02-26T17:44:12.945Z,95356.84
2023-02-26T17:46:40.791Z,95368.31
2023-02-26T17:49:10.725Z,95370.13
2023-02-26T17:51:39.945Z,95379.22
2023-02-26T17:54:08.344Z,95374.97
2023-02-26T17:56:37.105Z,95386.75
2023-02-26T17:59:07.147Z,95383.03
2023-02-26T18:01:34.910Z,95386.63
2023-02-26T18:04:03.601Z,95392.59
2023-02-26T18:06:35.364Z,95401.66
2023-02-26T18:09:05.985Z,95403.09
2023-02-26T18:11:34.355Z,95404.19
2023-02-26T18:14:03.542Z,95417.53
2023-02-26T18:16:35.930Z,95416.16
2023-02-26T18:19:03.707Z,95415.41
2023-02-26T18:21:31.489Z,95415.44
2023-02-26T18:24:01.067Z,95409.13
2023-02-26T18:26:33.379Z,95410.19
2023-02-26T18:29:01.141Z,95418.19
2023-02-26T18:31:34.625Z,95425.56
2023-02-26T18:34:04.389Z,95426.75
2023-02-26T18:36:37.645Z,95426.50
2023-02-26T18:39:07.342Z,95421.75
2023-02-26T18:41:36.497Z,95418.88
2023-02-26T18:44:04.424Z,95419.06
2023-02-26T18:46:34.849Z,95423.34
2023-02-26T18:49:02.696Z,95424.75
2023-02-26T18:51:30.578Z,95431.03
2023-02-26T18:53:58.328Z,95432.31
2023-02-26T18:56:26.160Z,95425.91
2023-02-26T18:58:55.348Z,95423.03
2023-02-26T19:01:25.299Z,95426.31
2023-02-26T19:03:55.698Z,95428.38
2023-02-26T19:06:23.999Z,95422.81
2023-02-26T19:08:53.160Z,95422.16
2023-02-26T19:11:20.932Z,95414.97
2023-02-26T19:13:50.351Z,95412.06
2023-02-26T19:16:23.395Z,95417.22
2023-02-26T19:18:51.534Z,95416.41
2023-02-26T19:21:19.311Z,95416.22
2023-02-26T19:23:48.420Z,95422.16
2023-02-26T19:26:16.180Z,95423.19
2023-02-26T19:28:43.927Z,95430.53
2023-02-26T19:31:11.903Z,95434.44
2023-02-26T19:33:41.168Z,95440.78
2023-02-26T19:36:09.735Z,95447.72
2023-02-26T19:38:37.555Z,95432.78
2023-02-26T19:41:05.679Z,95429.88
2023-02-26T19:43:33.455Z,95426.88
2023-02-26T19:46:03.921Z,95434.72
2023-02-26T19:48:32.065Z,95422.47
2023-02-26T19:51:03.046Z,95432.09
2023-02-26T19:53:33.819Z,95438.25
2023-02-26T19:56:01.809Z,95434.94
2023-02-26T19:58:30.638Z,95442.56
2023-02-26T20:00:58.615Z,95447.31
2023-02-26T20:03:26.852Z,95451.00
2023-02-26T20:05:55.163Z,95464.31
2023-02-26T20:08:26.899Z,95460.63
2023-02-26T20:10:56.695Z,95463.28
2023-02-26T20:13:29.725Z,95474.72
2023-02-26T20:15:58.679Z,95472.63
2023-02-26T20:18:27.495Z,95484.09
2023-02-26T20:20:55.625Z,95481.03
2023-02-26T20:23:24.828Z,95488.03
2023-02-26T20:25:55.691Z,95486.88
2023-02-26T20:28:23.843Z,95499.03
2023-02-26T20:30:52.311Z,95502.31
2023-02-26T20:33:21.092Z,95499.28
2023-02-26T20:35:49.214Z,95503.97
2023-02-26T20:38:19.321Z,95512.81
2023-02-26T20:40:49.703Z,95515.03
2023-02-26T20:43:20.342Z,95510.34
2023-02-26T20:45:49.442Z,95512.22
2023-02-26T20:48:20.100Z,95511.59
2023-02-26T20:50:48.010Z,95522.25
2023-02-26T20:53:15.885Z,95514.31
2023-02-26T20:55:43.823Z,95517.38
2023-02-26T20:58:13.026Z,95514.72
2023-02-26T21:00:40.928Z,95519.22
2023-02-26T21:03:09.118Z,95528.06
2023-02-26T21:05:38.606Z,95521.31
2023-02-26T21:08:06.453Z,95526.84
2023-02-26T21:10:34.677Z,95527.84
2023-02-26T21:13:02.512Z,95525.03
2023-02-26T21:15:31.672Z,95511.91
2023-02-26T21:17:59.629Z,95524.38
2023-02-26T21:20:30.258Z,95532.16
2023-02-26T21:22:58.824Z,95527.03
2023-02-26T21:25:27.589Z,95523.16
2023-02-26T21:27:55.486Z,95525.41
2023-02-26T21:30:26.179Z,95526.22
2023-02-26T21:32:55.653Z,95540.13
2023-02-26T21:35:23.517Z,95545.84
2023-02-26T21:37:51.774Z,95545.47
2023-02-26T21:40:19.890Z,95541.78
2023-02-26T21:42:47.621Z,95547.06
2023-02-26T21:45:15.626Z,95543.81
2023-02-26T21:47:43.346Z,95542.34
2023-02-26T21:50:13.316Z,95548.69
2023-02-26T21:52:41.241Z,95546.22
2023-02-26T21:55:09.874Z,95549.28
2023-02-26T21:57:37.645Z,95548.28
2023-02-26T22:00:10.131Z,95549.13
2023-02-26T22:02:38.477Z,95550.16
2023-02-26T22:05:06.483Z,95546.25
2023-02-26T22:07:35.824Z,95559.34
2023-02-26T22:10:03.621Z,95554.81
2023-02-26T22:12:33.687Z,95556.88
2023-02-26T22:15:01.403Z,95556.88
2023-02-26T22:17:30.811Z,95557.88
2023-02-26T22:19:58.687Z,95557.25
2023-02-26T22:22:31.544Z,95563.38
2023-02-26T22:25:00.704Z,95573.59
2023-02-26T22:27:28.465Z,95563.53
2023-02-26T22:29:59.254Z,95563.13
2023-02-26T22:32:27.084Z,95557.38
2023-02-26T22:34:59.011Z,95563.06
2023-02-26T22:37:26.790Z,95563.66
2023-02-26T22:39:54.579Z,95565.91
2023-02-26T22:42:24.292Z,95560.59
2023-02-26T22:44:52.240Z,95558.13
2023-02-26T22:47:21.669Z,95570.41
2023-02-26T22:49:51.248Z,95564.47
2023-02-26T22:52:18.967Z,95567.31
2023-02-26T23:00:42.274Z,95564.53
2023-02-26T23:03:14.672Z,95555.69
2023-02-26T23:05:42.542Z,95555.31
2023-02-26T23:08:10.533Z,95574.56
2023-02-26T23:10:38.333Z,95565.56
2023-02-26T23:13:06.084Z,95565.97
2023-02-26T23:15:33.891Z,95576.41
2023-02-26T23:18:04.979Z,95581.75
2023-02-26T23:20:35.853Z,95574.38
2023-02-26T23:23:04.483Z,95584.41
2023-02-26T23:25:32.311Z,95591.56
2023-02-26T23:28:00.069Z,95584.81
2023-02-26T23:30:28.308Z,95587.66
2023-02-26T23:32:56.412Z,95584.97
2023-02-26T23:35:25.516Z,95591.31
2023-02-26T23:37:53.478Z,95588.03
2023-02-26T23:40:21.286Z,95583.78
2023-02-26T23:42:49.447Z,95583.16
2023-02-26T23:45:18.400Z,95583.78
2023-02-26T23:47:46.627Z,95580.75
2023-02-26T23:50:14.421Z,95591.59
2023-02-26T23:52:43.485Z,95596.53
2023-02-26T23:55:12.225Z,95586.09
2023-02-26T23:57:40.165Z,95592.06
